Bloom, North Dakota
Current Conditions -  °F | °C
As of 4:56 PM on Saturday 22 Nov 2014 (Local Time) from KJMS Reporting Station
Broken Clouds Broken Clouds  
Wind Chill: 32°   Ceiling: 12000
Heat Index: 37°   Visibility: 10mi
Dew Point: 28°   Wind: 7mph
Humidity: 70%   Direction: 160°SSE
Pressure: 29.36"   Gusts: NA
Location:  46.8494°N, 98.7424°W
Report Text: KJMS 222256Z AUTO 16006KT 10SM BKN120 03/M02 A2936 RMK AO2 SLP958 T00281022
Loading
Personal Weather Stations






























Interactive Weather Map New forecast layout! Learn more

10-Day Weather Forecast

Advertisements
Track Severe Weather on mobile